createdAt,value
2022-08-26T00:01:56.663Z,94930.16
2022-08-26T00:04:26.916Z,94937.94
2022-08-26T00:06:56.133Z,94929.69
2022-08-26T00:09:24.954Z,94932.03
2022-08-26T00:11:53.439Z,94934.66
2022-08-26T00:14:21.594Z,94940.19
2022-08-26T00:16:49.609Z,94934.63
2022-08-26T00:19:18.905Z,94911.56
2022-08-26T00:21:50.670Z,94927.44
2022-08-26T00:24:20.851Z,94925.06
2022-08-26T00:26:48.971Z,94926.50
2022-08-26T00:29:17.684Z,94858.69
2022-08-26T00:31:46.010Z,94888.13
2022-08-26T00:34:15.342Z,94907.59
2022-08-26T00:36:44.322Z,94923.78
2022-08-26T00:39:14.144Z,94924.34
2022-08-26T00:41:42.603Z,94925.88
2022-08-26T00:44:12.151Z,94921.91
2022-08-26T00:46:46.470Z,94919.34
2022-08-26T00:49:19.239Z,94935.38
2022-08-26T00:51:52.051Z,94933.13
2022-08-26T00:54:24.114Z,94934.94
2022-08-26T00:56:59.843Z,94928.34
2022-08-26T00:59:32.693Z,94936.16
2022-08-26T01:02:02.780Z,94936.56
2022-08-26T01:04:32.652Z,94934.25
2022-08-26T01:07:01.159Z,94930.31
2022-08-26T01:09:31.134Z,94920.13
2022-08-26T01:12:02.260Z,94920.81
2022-08-26T01:14:33.613Z,94927.03
2022-08-26T01:17:05.188Z,94917.22
2022-08-26T01:19:39.256Z,94919.41
2022-08-26T01:22:12.065Z,94921.38
2022-08-26T01:24:42.704Z,94902.03
2022-08-26T01:27:13.705Z,94919.22
2022-08-26T01:29:45.948Z,94843.91
2022-08-26T01:32:18.795Z,94888.47
2022-08-26T01:34:48.405Z,94865.97
2022-08-26T01:37:21.199Z,94859.75
2022-08-26T01:39:52.916Z,94900.59
2022-08-26T01:42:23.084Z,94921.28
2022-08-26T01:44:55.188Z,94919.34
2022-08-26T01:47:28.203Z,94914.19
2022-08-26T01:50:01.351Z,94869.66
2022-08-26T01:52:34.683Z,94928.41
2022-08-26T01:55:05.215Z,94915.63
2022-08-26T01:57:37.205Z,94923.41
2022-08-26T02:00:11.212Z,94918.69
2022-08-26T02:02:39.156Z,94915.16
2022-08-26T02:05:11.608Z,94921.59
2022-08-26T02:07:40.648Z,94916.72
2022-08-26T02:10:10.840Z,94899.63
2022-08-26T02:12:40.288Z,94917.16
2022-08-26T02:15:12.191Z,94901.88
2022-08-26T02:17:44.736Z,94909.41
2022-08-26T02:20:14.987Z,94912.59
2022-08-26T02:22:45.181Z,94878.41
2022-08-26T02:25:19.337Z,94907.72
2022-08-26T02:27:48.912Z,94919.78
2022-08-26T02:30:19.293Z,94917.41
2022-08-26T02:32:49.483Z,94915.38
2022-08-26T02:35:20.207Z,94918.13
2022-08-26T02:37:49.543Z,94862.06
2022-08-26T02:40:22.928Z,94906.44
2022-08-26T02:42:53.062Z,94889.41
2022-08-26T02:45:24.140Z,94911.41
2022-08-26T02:47:52.720Z,94918.13
2022-08-26T02:50:22.244Z,94910.69
2022-08-26T02:52:50.173Z,94918.50
2022-08-26T02:55:19.648Z,94917.06
2022-08-26T02:57:47.584Z,94908.94
2022-08-26T03:00:17.752Z,94908.81
2022-08-26T03:02:46.229Z,94918.56
2022-08-26T03:05:15.507Z,94916.41
2022-08-26T03:07:43.836Z,94916.41
2022-08-26T03:10:13.652Z,94921.88
2022-08-26T03:12:47.433Z,94900.00
2022-08-26T03:15:18.649Z,94914.75
2022-08-26T03:17:49.160Z,94854.56
2022-08-26T03:20:19.296Z,94889.41
2022-08-26T03:22:47.382Z,94919.84
2022-08-26T03:25:17.801Z,94923.66
2022-08-26T03:27:47.676Z,94920.50
2022-08-26T03:30:34.479Z,94904.06
2022-08-26T03:33:03.325Z,94915.50
2022-08-26T03:35:32.789Z,94916.63
2022-08-26T03:38:01.323Z,94839.19
2022-08-26T03:40:30.203Z,94918.94
2022-08-26T03:42:59.659Z,94915.25
2022-08-26T03:45:27.680Z,94903.91
2022-08-26T03:47:55.859Z,94864.50
2022-08-26T03:50:27.196Z,94910.13
2022-08-26T03:52:56.373Z,94908.06
2022-08-26T03:55:26.706Z,94895.63
2022-08-26T03:57:55.898Z,94911.16
2022-08-26T04:00:25.729Z,94878.91
2022-08-26T04:02:54.199Z,94912.38
2022-08-26T04:05:23.601Z,94909.03
2022-08-26T04:07:52.274Z,94914.97
2022-08-26T04:10:28.595Z,94909.44
2022-08-26T04:12:56.788Z,94905.72
2022-08-26T04:15:28.668Z,94910.84
2022-08-26T04:17:57.526Z,94910.63
2022-08-26T04:20:25.925Z,94917.19
2022-08-26T04:22:53.947Z,94916.66
2022-08-26T04:25:22.561Z,94914.81
2022-08-26T04:27:52.142Z,94911.44
2022-08-26T04:30:21.237Z,94908.72
2022-08-26T04:32:50.924Z,94897.91
2022-08-26T04:35:21.815Z,94902.44
2022-08-26T04:37:53.917Z,94904.38
2022-08-26T04:40:21.866Z,94902.59
2022-08-26T04:42:50.272Z,94907.41
2022-08-26T04:45:19.018Z,94903.59
2022-08-26T04:47:56.370Z,94911.22
2022-08-26T04:50:26.648Z,94912.63
2022-08-26T04:52:55.096Z,94908.72
2022-08-26T04:55:29.036Z,94905.34
2022-08-26T04:58:08.764Z,94910.47
2022-08-26T05:00:38.745Z,94917.44
2022-08-26T05:03:10.374Z,94903.50
2022-08-26T05:05:40.977Z,94908.69
2022-08-26T05:08:09.994Z,94915.19
2022-08-26T05:10:42.458Z,94903.91
2022-08-26T05:13:14.235Z,94924.19
2022-08-26T05:15:44.164Z,94922.63
2022-08-26T05:18:14.933Z,94918.00
2022-08-26T05:20:46.532Z,94921.06
2022-08-26T05:23:15.972Z,94926.06
2022-08-26T05:25:47.046Z,94928.09
2022-08-26T05:28:17.491Z,94913.47
2022-08-26T05:30:45.871Z,94930.69
2022-08-26T05:33:16.369Z,94901.97
2022-08-26T05:35:46.030Z,94886.47
2022-08-26T05:38:16.602Z,94935.28
2022-08-26T05:40:46.720Z,94933.44
2022-08-26T05:43:15.197Z,94931.63
2022-08-26T05:45:46.146Z,94928.66
2022-08-26T05:48:16.683Z,94865.69
2022-08-26T05:50:47.187Z,94925.81
2022-08-26T05:53:17.437Z,94936.91
2022-08-26T05:55:49.267Z,94918.84
2022-08-26T05:58:20.193Z,94924.16
2022-08-26T06:00:57.055Z,94935.72
2022-08-26T06:03:26.337Z,94901.78
2022-08-26T06:05:54.455Z,94894.91
2022-08-26T06:08:22.468Z,94917.44
2022-08-26T06:10:52.580Z,94944.53
2022-08-26T06:13:21.831Z,94938.66
2022-08-26T06:15:52.202Z,94940.06
2022-08-26T06:18:22.882Z,94891.38
2022-08-26T06:20:57.205Z,94949.06
2022-08-26T06:23:45.486Z,94945.91
2022-08-26T06:26:16.181Z,94946.81
2022-08-26T06:28:45.466Z,94924.22
2022-08-26T06:31:14.347Z,94953.16
2022-08-26T06:33:42.436Z,94951.91
2022-08-26T06:36:16.945Z,94939.94
2022-08-26T06:38:47.311Z,94957.09
2022-08-26T06:41:15.779Z,94962.25
2022-08-26T06:43:43.787Z,94958.91
2022-08-26T06:46:14.428Z,94956.50
2022-08-26T06:48:42.363Z,94952.44
2022-08-26T06:51:15.001Z,94962.38
2022-08-26T06:53:45.654Z,94930.06
2022-08-26T06:56:16.105Z,94965.47
2022-08-26T06:58:44.908Z,94963.66
2022-08-26T07:01:18.440Z,94940.56
2022-08-26T07:03:49.040Z,94952.97
2022-08-26T07:06:19.652Z,94967.38
2022-08-26T07:08:47.630Z,94967.97
2022-08-26T07:11:15.743Z,94970.72
2022-08-26T07:13:44.848Z,94908.38
2022-08-26T07:16:17.520Z,94958.78
2022-08-26T07:18:48.375Z,94929.16
2022-08-26T07:21:19.132Z,94963.22
2022-08-26T07:23:47.287Z,94960.47
2022-08-26T07:26:20.844Z,94958.25
2022-08-26T07:28:50.636Z,94969.28
2022-08-26T07:31:23.001Z,94906.78
2022-08-26T07:33:51.595Z,94871.72
2022-08-26T07:36:23.117Z,94933.69
2022-08-26T07:38:51.577Z,94963.31
2022-08-26T07:41:26.336Z,94968.97
2022-08-26T07:43:55.628Z,94965.44
2022-08-26T07:46:27.508Z,94964.03
2022-08-26T07:48:59.174Z,94966.84
2022-08-26T07:51:29.074Z,94959.25
2022-08-26T07:53:57.151Z,94958.22
2022-08-26T07:56:26.239Z,94970.88
2022-08-26T07:58:54.693Z,94960.63
2022-08-26T08:01:23.633Z,94963.09
2022-08-26T08:03:52.272Z,94968.44
2022-08-26T08:06:20.780Z,94969.72
2022-08-26T08:08:51.664Z,94973.13
2022-08-26T08:11:21.669Z,94962.41
2022-08-26T08:13:56.531Z,94966.50
2022-08-26T08:16:26.100Z,94951.38
2022-08-26T08:18:54.526Z,94964.59
2022-08-26T08:21:24.473Z,94960.66
2022-08-26T08:23:55.752Z,94967.91
2022-08-26T08:26:25.292Z,94964.41
2022-08-26T08:28:59.043Z,94967.28
2022-08-26T08:34:18.149Z,94968.84
2022-08-26T08:36:46.818Z,94966.31
2022-08-26T08:39:16.097Z,94947.81
2022-08-26T08:42:00.536Z,94941.94
2022-08-26T08:44:30.941Z,94959.66
2022-08-26T08:47:04.925Z,94932.66
2022-08-26T08:49:34.704Z,94905.06
2022-08-26T08:52:08.024Z,94900.41
2022-08-26T08:54:37.383Z,94947.97
2022-08-26T08:57:12.086Z,94947.75
2022-08-26T08:59:52.079Z,94942.19
2022-08-26T09:02:29.070Z,94942.41
2022-08-26T09:05:09.144Z,94943.41
2022-08-26T09:07:47.282Z,94937.47
2022-08-26T09:10:35.172Z,94888.31
2022-08-26T09:13:06.217Z,94924.84
2022-08-26T09:15:43.765Z,94940.06
2022-08-26T09:18:24.938Z,94924.59
2022-08-26T09:20:57.812Z,94905.47
2022-08-26T09:23:26.174Z,94927.34
2022-08-26T09:25:59.234Z,94925.00
2022-08-26T09:28:29.867Z,94925.16
2022-08-26T09:31:11.690Z,94908.31
2022-08-26T09:33:41.209Z,94908.44
2022-08-26T09:36:24.756Z,94911.97
2022-08-26T09:38:54.336Z,94896.31
2022-08-26T09:41:28.186Z,94912.09
2022-08-26T09:44:18.262Z,94917.53
2022-08-26T09:46:55.573Z,94916.56
2022-08-26T09:49:35.868Z,94921.84
2022-08-26T09:52:18.697Z,94908.13
2022-08-26T09:54:59.501Z,94920.66
2022-08-26T09:57:31.411Z,94911.38
2022-08-26T10:00:01.300Z,94903.03
2022-08-26T10:02:41.623Z,94910.22
2022-08-26T10:05:19.221Z,94920.25
2022-08-26T10:07:49.948Z,94920.63
2022-08-26T10:10:22.572Z,94913.00
2022-08-26T10:13:04.299Z,94905.13
2022-08-26T10:15:48.646Z,94905.13
2022-08-26T10:18:25.145Z,94903.69
2022-08-26T10:20:59.953Z,94901.88
2022-08-26T10:23:32.336Z,94909.41
2022-08-26T10:26:05.754Z,94815.13
2022-08-26T10:28:41.670Z,94806.03
2022-08-26T10:31:23.312Z,94902.56
2022-08-26T10:34:00.329Z,94830.53
2022-08-26T10:39:48.124Z,94883.97
2022-08-26T10:42:25.459Z,94895.69
2022-08-26T10:45:02.849Z,94858.78
2022-08-26T10:47:38.297Z,94890.75
2022-08-26T10:50:07.320Z,94897.25
2022-08-26T10:52:53.715Z,94894.19
2022-08-26T10:55:34.699Z,94860.06
2022-08-26T10:58:26.124Z,94886.13
2022-08-26T11:01:22.829Z,94886.06
2022-08-26T11:04:00.357Z,94890.81
2022-08-26T11:06:31.397Z,94877.94
2022-08-26T11:09:01.161Z,94894.00
2022-08-26T11:12:01.128Z,94837.19
2022-08-26T11:14:42.078Z,94887.34
2022-08-26T11:17:57.592Z,94865.69
2022-08-26T11:20:39.337Z,94882.78
2022-08-26T11:23:38.923Z,94882.84
2022-08-26T11:26:32.759Z,94862.06
2022-08-26T11:29:13.156Z,94865.66
2022-08-26T11:31:57.174Z,94871.06
2022-08-26T11:34:56.653Z,94861.97
2022-08-26T11:37:33.217Z,94869.56
2022-08-26T11:40:04.281Z,94864.25
2022-08-26T11:42:41.029Z,94871.94
2022-08-26T11:45:20.441Z,94864.09
2022-08-26T11:47:49.450Z,94847.56
2022-08-26T11:50:23.427Z,94821.63
2022-08-26T11:52:56.533Z,94825.28
2022-08-26T11:55:25.249Z,94860.50
2022-08-26T11:57:56.027Z,94859.16
2022-08-26T12:00:27.439Z,94852.91
2022-08-26T12:03:06.537Z,94843.78
2022-08-26T12:05:44.986Z,94849.25
2022-08-26T12:08:17.792Z,94848.41
2022-08-26T12:10:46.221Z,94847.72
2022-08-26T12:13:23.129Z,94847.44
2022-08-26T12:15:55.789Z,94828.97
2022-08-26T12:18:29.029Z,94823.00
2022-08-26T12:21:01.692Z,94843.53
2022-08-26T12:23:42.150Z,94826.47
2022-08-26T12:26:16.512Z,94831.00
2022-08-26T12:28:48.826Z,94822.66
2022-08-26T12:31:24.111Z,94820.91
2022-08-26T12:33:54.122Z,94824.44
2022-08-26T12:36:28.638Z,94824.09
2022-08-26T12:38:58.554Z,94814.59
2022-08-26T12:41:48.721Z,94818.19
2022-08-26T12:44:38.448Z,94819.16
2022-08-26T12:47:09.481Z,94805.31
2022-08-26T12:49:39.420Z,94810.81
2022-08-26T12:52:29.994Z,94809.44
2022-08-26T12:55:00.027Z,94800.69
2022-08-26T12:57:32.139Z,94803.69
2022-08-26T13:00:26.225Z,94828.44
2022-08-26T13:02:56.856Z,94768.28
2022-08-26T13:05:30.209Z,94804.69
2022-08-26T13:08:18.451Z,94802.13
2022-08-26T13:10:50.314Z,94789.09
2022-08-26T13:13:18.292Z,94802.66
2022-08-26T13:15:46.200Z,94780.59
2022-08-26T13:18:14.119Z,94795.44
2022-08-26T13:20:44.851Z,94673.47
2022-08-26T13:23:15.091Z,94795.88
2022-08-26T13:25:43.317Z,94787.00
2022-08-26T13:28:11.311Z,94786.72
2022-08-26T13:30:47.831Z,94749.25
2022-08-26T13:33:18.269Z,94756.47
2022-08-26T13:35:46.284Z,94781.53
2022-08-26T13:38:32.890Z,94757.50
2022-08-26T13:41:02.741Z,94779.44
2022-08-26T13:43:31.096Z,94779.16
2022-08-26T13:45:59.772Z,94778.66
2022-08-26T13:48:27.767Z,94773.56
2022-08-26T13:50:55.733Z,94780.34
2022-08-26T13:53:25.228Z,94738.34
2022-08-26T13:55:53.214Z,94779.28
2022-08-26T13:58:21.234Z,94773.59
2022-08-26T14:00:53.725Z,94768.94
2022-08-26T14:03:21.809Z,94739.78
2022-08-26T14:05:49.912Z,94779.31
2022-08-26T14:08:18.377Z,94787.97
2022-08-26T14:13:21.580Z,94784.72
2022-08-26T14:15:50.534Z,94774.34
2022-08-26T14:18:22.168Z,94781.78
2022-08-26T14:20:51.931Z,94790.84
2022-08-26T14:23:20.098Z,94776.06
2022-08-26T14:25:49.520Z,94767.56
2022-08-26T14:28:17.591Z,94771.13
2022-08-26T14:30:48.796Z,94777.59
2022-08-26T14:33:19.656Z,94772.03
2022-08-26T14:35:48.050Z,94739.63
2022-08-26T14:38:17.585Z,94768.16
2022-08-26T14:40:46.129Z,94775.88
2022-08-26T14:43:16.264Z,94762.47
2022-08-26T14:45:45.786Z,94769.28
2022-08-26T14:48:14.131Z,94782.22
2022-08-26T14:50:42.120Z,94779.75
2022-08-26T14:53:27.580Z,94779.44
2022-08-26T14:55:55.552Z,94728.84
2022-08-26T14:58:24.857Z,94787.34
2022-08-26T15:00:56.823Z,94785.94
2022-08-26T15:03:24.790Z,94778.50
2022-08-26T15:05:53.359Z,94775.59
2022-08-26T15:08:21.812Z,94780.97
2022-08-26T15:10:50.241Z,94779.16
2022-08-26T15:13:18.149Z,94787.19
2022-08-26T15:15:47.725Z,94787.00
2022-08-26T15:18:15.696Z,94783.16
2022-08-26T15:20:44.460Z,94784.84
2022-08-26T15:23:12.430Z,94779.13
2022-08-26T15:25:40.405Z,94718.00
2022-08-26T15:28:08.291Z,94752.28
2022-08-26T15:30:36.506Z,94793.63
2022-08-26T15:33:05.833Z,94783.13
2022-08-26T15:35:43.196Z,94785.13
2022-08-26T15:38:11.664Z,94787.09
2022-08-26T15:40:39.864Z,94787.09
2022-08-26T15:43:25.417Z,94688.06
2022-08-26T15:45:56.140Z,94772.22
2022-08-26T15:48:26.233Z,94728.13
2022-08-26T15:50:56.360Z,94776.47
2022-08-26T15:53:24.836Z,94736.47
2022-08-26T15:55:55.037Z,94779.91
2022-08-26T15:58:25.884Z,94776.50
2022-08-26T16:00:55.983Z,94773.88
2022-08-26T16:03:25.527Z,94764.44
2022-08-26T16:05:53.530Z,94776.69
2022-08-26T16:08:22.357Z,94775.41
2022-08-26T16:10:51.352Z,94767.84
2022-08-26T16:13:21.269Z,94775.69
2022-08-26T16:15:49.689Z,94721.63
2022-08-26T16:18:20.279Z,94775.66
2022-08-26T16:21:02.838Z,94758.00
2022-08-26T16:23:45.116Z,94773.63
2022-08-26T16:26:16.062Z,94772.66
2022-08-26T16:28:44.466Z,94766.00
2022-08-26T16:31:12.881Z,94746.47
2022-08-26T16:33:40.995Z,94765.19
2022-08-26T16:36:11.748Z,94712.75
2022-08-26T16:38:40.731Z,94760.19
2022-08-26T16:41:09.606Z,94774.19
2022-08-26T16:43:37.889Z,94773.22
2022-08-26T16:46:07.123Z,94772.25
2022-08-26T16:48:36.620Z,94732.78
2022-08-26T16:51:04.619Z,94702.28
2022-08-26T16:53:33.869Z,94772.13
2022-08-26T16:56:01.787Z,94774.56
2022-08-26T16:58:30.036Z,94770.06
2022-08-26T17:00:58.253Z,94772.75
2022-08-26T17:03:26.141Z,94765.13
2022-08-26T17:05:54.480Z,94779.53
2022-08-26T17:08:27.607Z,94780.56
2022-08-26T17:11:00.388Z,94774.03
2022-08-26T17:13:35.529Z,94777.25
2022-08-26T17:16:05.363Z,94786.44
2022-08-26T17:18:34.645Z,94781.47
2022-08-26T17:21:04.324Z,94777.09
2022-08-26T17:23:32.688Z,94723.69
2022-08-26T17:26:02.315Z,94790.94
2022-08-26T17:28:30.316Z,94791.78
2022-08-26T17:31:00.104Z,94725.69
2022-08-26T17:33:28.647Z,94797.22
2022-08-26T17:35:57.290Z,94793.88
2022-08-26T17:38:25.468Z,94771.66
2022-08-26T17:40:53.753Z,94704.63
2022-08-26T17:43:23.047Z,94798.63
2022-08-26T17:45:51.002Z,94804.69
2022-08-26T17:48:18.972Z,94799.72
2022-08-26T17:50:49.424Z,94807.00
2022-08-26T17:53:18.714Z,94812.72
2022-08-26T17:55:47.955Z,94808.94
2022-08-26T17:58:16.339Z,94730.41
2022-08-26T18:00:46.237Z,94811.13
2022-08-26T18:03:14.584Z,94813.31
2022-08-26T18:05:43.044Z,94811.44
2022-08-26T18:08:11.207Z,94809.53
2022-08-26T18:10:39.159Z,94817.16
2022-08-26T18:13:07.078Z,94803.06
2022-08-26T18:15:35.193Z,94815.66
2022-08-26T18:18:04.579Z,94816.50
2022-08-26T18:20:32.544Z,94824.78
2022-08-26T18:23:00.567Z,94820.50
2022-08-26T18:25:28.576Z,94819.03
2022-08-26T18:27:56.556Z,94822.75
2022-08-26T18:30:24.576Z,94828.00
2022-08-26T18:32:53.420Z,94815.88
2022-08-26T18:35:22.787Z,94835.34
2022-08-26T18:37:50.793Z,94815.69
2022-08-26T18:40:19.026Z,94827.78
2022-08-26T18:42:47.097Z,94834.13
2022-08-26T18:45:26.067Z,94836.56
2022-08-26T18:47:54.006Z,94845.53
2022-08-26T18:50:24.282Z,94847.25
2022-08-26T18:52:52.184Z,94830.34
2022-08-26T18:55:20.429Z,94833.09
2022-08-26T18:57:48.340Z,94838.94
2022-08-26T19:00:17.517Z,94855.31
2022-08-26T19:02:50.511Z,94849.97
2022-08-26T19:05:20.225Z,94843.78
2022-08-26T19:07:49.728Z,94853.03
2022-08-26T19:10:18.298Z,94850.84
2022-08-26T19:12:46.268Z,94855.53
2022-08-26T19:15:19.988Z,94834.16
2022-08-26T19:17:48.166Z,94851.50
2022-08-26T19:20:16.817Z,94839.34
2022-08-26T19:22:46.040Z,94858.47
2022-08-26T19:25:15.615Z,94851.41
2022-08-26T19:27:43.775Z,94860.50
2022-08-26T19:30:12.044Z,94854.31
2022-08-26T19:32:39.936Z,94861.28
2022-08-26T19:35:09.138Z,94858.25
2022-08-26T19:37:39.928Z,94862.13
2022-08-26T19:40:08.729Z,94804.53
2022-08-26T19:42:38.205Z,94858.03
2022-08-26T19:45:20.213Z,94856.56
2022-08-26T19:47:53.552Z,94858.88
2022-08-26T19:50:22.312Z,94864.56
2022-08-26T19:52:50.384Z,94790.56
2022-08-26T19:55:19.922Z,94864.25
2022-08-26T19:57:50.194Z,94855.41
2022-08-26T20:00:21.046Z,94828.31
2022-08-26T20:02:49.915Z,94862.69
2022-08-26T20:05:20.403Z,94856.53
2022-08-26T20:07:48.529Z,94862.75
2022-08-26T20:10:18.284Z,94863.16
2022-08-26T20:12:46.204Z,94863.72
2022-08-26T20:15:16.792Z,94858.56
2022-08-26T20:17:44.705Z,94863.75
2022-08-26T20:20:33.360Z,94797.41
2022-08-26T20:23:02.457Z,94871.47
2022-08-26T20:25:30.640Z,94855.47
2022-08-26T20:27:58.556Z,94868.78
2022-08-26T20:30:28.064Z,94869.38
2022-08-26T20:32:55.995Z,94868.34
2022-08-26T20:35:24.051Z,94870.28
2022-08-26T20:37:51.967Z,94871.53
2022-08-26T20:40:21.395Z,94864.47
2022-08-26T20:42:49.399Z,94867.31
2022-08-26T20:45:17.400Z,94872.09
2022-08-26T20:47:46.725Z,94874.63
2022-08-26T20:50:14.649Z,94886.13
2022-08-26T20:52:42.536Z,94873.81
2022-08-26T20:55:11.006Z,94840.59
2022-08-26T20:57:38.937Z,94857.28
2022-08-26T21:00:08.071Z,94879.06
2022-08-26T21:02:36.961Z,94880.59
2022-08-26T21:05:07.515Z,94865.44
2022-08-26T21:07:35.553Z,94877.81
2022-08-26T21:10:04.175Z,94888.44
2022-08-26T21:12:32.240Z,94863.13
2022-08-26T21:15:00.560Z,94878.78
2022-08-26T21:17:28.807Z,94888.31
2022-08-26T21:19:56.767Z,94852.03
2022-08-26T21:22:26.540Z,94877.13
2022-08-26T21:24:54.404Z,94882.25
2022-08-26T21:27:22.356Z,94888.06
2022-08-26T21:29:54.403Z,94887.81
2022-08-26T21:32:22.265Z,94897.09
2022-08-26T21:34:50.138Z,94889.84
2022-08-26T21:37:18.076Z,94897.16
2022-08-26T21:39:47.358Z,94894.34
2022-08-26T21:42:15.245Z,94887.03
2022-08-26T21:44:45.117Z,94900.59
2022-08-26T21:47:20.572Z,94898.69
2022-08-26T21:49:48.496Z,94901.38
2022-08-26T21:52:16.423Z,94904.91
2022-08-26T21:54:49.326Z,94889.09
2022-08-26T21:57:19.510Z,94891.50
2022-08-26T21:59:47.392Z,94905.22
2022-08-26T22:02:15.738Z,94908.28
2022-08-26T22:04:48.563Z,94909.06
2022-08-26T22:07:19.114Z,94909.75
2022-08-26T22:09:47.347Z,94910.47
2022-08-26T22:12:18.059Z,94902.31
2022-08-26T22:14:48.167Z,94908.16
2022-08-26T22:17:17.032Z,94912.28
2022-08-26T22:19:46.110Z,94911.84
2022-08-26T22:22:15.477Z,94915.50
2022-08-26T22:24:44.301Z,94913.22
2022-08-26T22:27:13.022Z,94907.47
